createdAt,value
2023-02-08T00:03:32.125Z,30.02
2023-02-08T00:08:29.018Z,35.10
2023-02-08T00:13:25.939Z,32.45
2023-02-08T00:18:23.329Z,28.02
2023-02-08T00:23:20.790Z,34.58
2023-02-08T00:28:18.751Z,36.03
2023-02-08T00:33:15.589Z,39.42
2023-02-08T00:38:12.397Z,35.85
2023-02-08T00:43:09.881Z,34.35
2023-02-08T00:48:06.784Z,39.40
2023-02-08T00:53:03.681Z,37.30
2023-02-08T00:58:00.626Z,33.65
2023-02-08T01:02:58.023Z,32.97
2023-02-08T01:07:58.980Z,40.25
2023-02-08T01:12:57.680Z,40.65
2023-02-08T01:17:54.900Z,42.20
2023-02-08T01:22:52.394Z,41.05
2023-02-08T01:27:49.560Z,37.00
2023-02-08T01:32:46.340Z,38.35
2023-02-08T01:37:43.206Z,39.85
2023-02-08T01:42:40.785Z,37.65
2023-02-08T01:47:38.681Z,35.03
2023-02-08T01:52:37.351Z,35.42
2023-02-08T01:57:34.226Z,32.38
2023-02-08T02:02:33.511Z,34.60
2023-02-08T02:07:31.378Z,35.08
2023-02-08T02:12:31.422Z,27.88
2023-02-08T02:17:28.354Z,29.45
2023-02-08T02:22:59.374Z,29.65
2023-02-08T02:28:28.222Z,31.00
2023-02-08T02:33:55.247Z,25.08
2023-02-08T02:39:04.105Z,25.63
2023-02-08T02:44:03.293Z,20.80
2023-02-08T02:49:07.316Z,19.65
2023-02-08T02:54:11.255Z,19.40
2023-02-08T02:59:11.498Z,18.20
2023-02-08T03:04:16.301Z,17.85
2023-02-08T03:09:47.528Z,17.33
2023-02-08T03:14:57.979Z,18.58
2023-02-08T03:20:06.503Z,20.15
2023-02-08T03:25:10.793Z,19.08
2023-02-08T03:30:15.227Z,17.10
2023-02-08T03:35:21.373Z,20.35
2023-02-08T03:40:23.293Z,20.33
2023-02-08T03:45:23.766Z,20.05
2023-02-08T03:50:22.961Z,19.95
2023-02-08T03:55:26.052Z,18.70
2023-02-08T04:00:23.898Z,21.42
2023-02-08T04:05:23.439Z,17.90
2023-02-08T04:10:20.657Z,19.08
2023-02-08T04:15:18.063Z,17.98
2023-02-08T04:20:14.851Z,17.55
2023-02-08T04:25:12.408Z,18.52
2023-02-08T04:30:10.468Z,18.45
2023-02-08T04:35:07.637Z,17.15
2023-02-08T04:40:04.696Z,16.88
2023-02-08T04:45:02.173Z,22.48
2023-02-08T04:49:58.966Z,17.92
2023-02-08T04:54:55.814Z,22.35
2023-02-08T04:59:52.573Z,26.42
2023-02-08T05:04:50.180Z,25.25
2023-02-08T05:09:46.999Z,21.20
2023-02-08T05:14:43.792Z,25.48
2023-02-08T05:19:40.723Z,21.02
2023-02-08T05:24:38.261Z,23.17
2023-02-08T05:29:35.127Z,25.77
2023-02-08T05:34:32.047Z,27.90
2023-02-08T05:39:28.876Z,23.67
2023-02-08T05:44:26.472Z,23.27
2023-02-08T05:49:23.536Z,25.58
2023-02-08T05:54:20.283Z,25.75
2023-02-08T05:59:17.041Z,23.77
2023-02-08T06:04:14.662Z,22.42
2023-02-08T06:09:13.399Z,19.42
2023-02-08T06:14:10.221Z,20.63
2023-02-08T06:19:07.114Z,20.73
2023-02-08T06:24:06.180Z,20.55
2023-02-08T06:29:03.360Z,21.13
2023-02-08T06:34:00.239Z,28.52
2023-02-08T06:38:57.204Z,28.48
2023-02-08T06:43:54.983Z,24.08
2023-02-08T06:48:51.898Z,26.00
2023-02-08T06:53:49.490Z,20.70
2023-02-08T06:58:46.654Z,21.02
2023-02-08T07:03:51.911Z,25.52
2023-02-08T07:08:49.021Z,24.00
2023-02-08T07:13:47.503Z,28.00
2023-02-08T07:18:44.769Z,20.77
2023-02-08T07:23:42.701Z,26.20
2023-02-08T07:28:42.836Z,18.77
2023-02-08T07:33:42.725Z,25.85
2023-02-08T07:38:39.687Z,19.95
2023-02-08T07:43:38.743Z,21.58
2023-02-08T07:48:39.857Z,21.48
2023-02-08T07:53:41.379Z,26.48
2023-02-08T07:58:39.380Z,21.23
2023-02-08T08:03:36.908Z,19.35
2023-02-08T08:08:33.911Z,20.33
2023-02-08T08:13:30.832Z,39.42
2023-02-08T08:18:28.712Z,23.75
2023-02-08T08:23:28.043Z,16.55
2023-02-08T08:28:25.213Z,17.25
2023-02-08T08:33:29.118Z,16.83
2023-02-08T08:38:26.806Z,18.35
2023-02-08T08:43:23.642Z,18.25
2023-02-08T08:48:20.540Z,44.45
2023-02-08T08:53:18.667Z,20.23
2023-02-08T08:58:17.379Z,45.35
2023-02-08T09:03:14.365Z,20.85
2023-02-08T09:08:13.262Z,26.58
2023-02-08T09:13:10.994Z,17.67
2023-02-08T09:18:08.653Z,21.63
2023-02-08T09:23:07.575Z,21.17
2023-02-08T09:28:05.249Z,23.95
2023-02-08T09:33:02.315Z,26.38
2023-02-08T09:38:02.038Z,21.73
2023-02-08T09:43:07.641Z,27.10
2023-02-08T09:48:15.136Z,20.40
2023-02-08T09:53:17.393Z,20.92
2023-02-08T09:58:23.879Z,78.00
2023-02-08T10:03:34.842Z,48.10
2023-02-08T10:08:35.534Z,31.92
2023-02-08T10:14:02.901Z,23.60
2023-02-08T10:19:06.477Z,44.15
2023-02-08T10:24:16.944Z,28.75
2023-02-08T10:29:30.083Z,27.20
2023-02-08T10:34:39.040Z,28.08
2023-02-08T10:39:39.337Z,32.20
2023-02-08T10:44:48.572Z,38.05
2023-02-08T10:49:51.961Z,36.70
2023-02-08T10:54:49.659Z,38.35
2023-02-08T10:59:49.287Z,35.22
2023-02-08T11:05:00.005Z,31.13
2023-02-08T11:10:15.135Z,31.35
2023-02-08T11:15:24.594Z,34.70
2023-02-08T11:20:26.220Z,30.05
2023-02-08T11:25:42.239Z,35.30
2023-02-08T11:30:39.499Z,27.02
2023-02-08T11:35:37.224Z,31.08
2023-02-08T11:40:37.236Z,26.20
2023-02-08T11:45:37.125Z,26.27
2023-02-08T11:50:37.558Z,26.88
2023-02-08T11:55:35.233Z,25.13
2023-02-08T12:00:35.404Z,22.23
2023-02-08T12:05:44.048Z,20.55
2023-02-08T12:11:01.280Z,23.60
2023-02-08T12:16:10.194Z,19.42
2023-02-08T12:21:12.945Z,19.00
2023-02-08T12:26:19.306Z,25.60
2023-02-08T12:31:31.290Z,22.25
2023-02-08T12:37:16.282Z,19.40
2023-02-08T12:42:25.966Z,23.80
2023-02-08T12:47:39.375Z,22.58
2023-02-08T12:52:40.929Z,23.48
2023-02-08T12:57:41.926Z,23.73
2023-02-08T13:02:44.492Z,23.63
2023-02-08T13:07:43.489Z,24.27
2023-02-08T13:12:44.063Z,20.73
2023-02-08T13:17:47.070Z,27.27
2023-02-08T13:22:44.675Z,25.17
2023-02-08T13:27:43.451Z,20.00
2023-02-08T13:32:44.455Z,26.40
2023-02-08T13:37:42.061Z,20.27
2023-02-08T13:42:43.239Z,20.20
2023-02-08T13:47:48.331Z,22.70
2023-02-08T13:52:50.487Z,24.33
2023-02-08T13:57:52.359Z,19.50
2023-02-08T14:03:02.026Z,22.75
2023-02-08T14:08:01.502Z,23.17
2023-02-08T14:13:03.073Z,18.20
2023-02-08T14:18:02.006Z,18.48
2023-02-08T14:23:01.954Z,23.20
2023-02-08T14:28:01.814Z,22.98
2023-02-08T14:33:18.899Z,19.80
2023-02-08T14:38:53.759Z,17.35
2023-02-08T14:43:50.693Z,19.58
2023-02-08T14:48:49.631Z,20.00
2023-02-08T14:53:55.285Z,22.95
2023-02-08T15:03:55.858Z,22.20
2023-02-08T15:08:55.022Z,22.23
2023-02-08T15:13:58.742Z,19.90
2023-02-08T15:18:57.765Z,19.02
2023-02-08T15:24:07.171Z,17.23
2023-02-08T15:29:04.139Z,17.67
2023-02-08T15:34:05.674Z,17.77
2023-02-08T15:39:09.726Z,18.08
2023-02-08T15:44:17.570Z,18.80
2023-02-08T15:49:17.038Z,20.40
2023-02-08T15:54:16.864Z,19.67
2023-02-08T15:59:20.150Z,20.00
2023-02-08T16:04:18.433Z,20.38
2023-02-08T16:09:21.631Z,22.35
2023-02-08T16:14:25.273Z,18.70
2023-02-08T16:19:27.832Z,20.08
2023-02-08T16:24:27.875Z,20.42
2023-02-08T16:29:28.927Z,22.15
2023-02-08T16:34:27.716Z,23.38
2023-02-08T16:39:52.325Z,16.83
2023-02-08T16:45:12.999Z,18.60
2023-02-08T16:50:20.841Z,17.38
2023-02-08T16:55:21.948Z,21.15
2023-02-08T17:00:24.953Z,25.38
2023-02-08T17:05:24.924Z,25.00
2023-02-08T17:10:28.916Z,24.05
2023-02-08T17:15:26.020Z,20.30
2023-02-08T17:20:26.516Z,19.10
2023-02-08T17:25:25.859Z,25.65
2023-02-08T17:30:25.166Z,23.95
2023-02-08T17:35:25.247Z,26.85
2023-02-08T17:40:26.376Z,27.67
2023-02-08T17:45:23.747Z,24.17
2023-02-08T17:50:22.912Z,22.48
2023-02-08T17:55:20.660Z,21.05
2023-02-08T18:00:19.873Z,20.63
2023-02-08T18:05:19.036Z,20.98
2023-02-08T18:10:18.514Z,25.38
2023-02-08T18:15:20.970Z,23.40
2023-02-08T18:20:21.320Z,23.40
2023-02-08T18:25:19.969Z,21.13
2023-02-08T18:30:18.368Z,27.17
2023-02-08T18:35:15.237Z,28.70
2023-02-08T18:40:12.603Z,31.10
2023-02-08T18:45:13.047Z,30.50
2023-02-08T18:50:11.472Z,30.50
2023-02-08T18:55:08.648Z,38.35
2023-02-08T19:00:06.645Z,35.63
2023-02-08T19:05:03.768Z,33.13
2023-02-08T19:10:04.078Z,37.83
2023-02-08T19:15:01.119Z,34.42
2023-02-08T19:20:00.986Z,29.88
2023-02-08T19:24:57.962Z,29.30
2023-02-08T19:29:55.908Z,30.10
2023-02-08T19:34:52.651Z,32.33
2023-02-08T19:39:49.784Z,28.10
2023-02-08T19:44:46.825Z,32.08
2023-02-08T19:49:44.601Z,32.90
2023-02-08T19:54:46.876Z,30.60
2023-02-08T19:59:44.311Z,32.33
2023-02-08T20:04:47.832Z,30.45
2023-02-08T20:09:45.642Z,29.00
2023-02-08T20:14:42.626Z,33.60
2023-02-08T20:19:42.608Z,30.83
2023-02-08T20:24:39.712Z,32.55
2023-02-08T20:29:37.616Z,31.13
2023-02-08T20:34:34.601Z,34.42
2023-02-08T20:39:31.565Z,32.72
2023-02-08T20:44:28.718Z,39.03
2023-02-08T20:49:26.562Z,33.85
2023-02-08T20:54:23.934Z,37.30
2023-02-08T20:59:21.692Z,38.13
2023-02-08T21:04:25.115Z,37.70
2023-02-08T21:09:23.424Z,41.13
2023-02-08T21:14:22.799Z,42.35
2023-02-08T21:19:22.487Z,39.13
2023-02-08T21:24:19.995Z,47.92
2023-02-08T21:29:17.560Z,47.80
2023-02-08T21:34:14.526Z,50.40
2023-02-08T21:39:11.504Z,50.60
2023-02-08T21:44:09.668Z,52.55
2023-02-08T21:49:26.065Z,51.97
2023-02-08T21:54:43.592Z,48.33
2023-02-08T21:59:42.172Z,47.10
2023-02-08T22:04:46.002Z,45.25
2023-02-08T22:09:42.971Z,51.20
2023-02-08T22:14:39.781Z,57.65
2023-02-08T22:19:37.351Z,64.35
2023-02-08T22:24:36.260Z,70.43
2023-02-08T22:29:33.421Z,75.55
2023-02-08T22:34:30.277Z,79.55
2023-02-08T22:39:27.112Z,78.63
2023-02-08T22:44:24.772Z,83.45
2023-02-08T22:49:21.683Z,75.38
2023-02-08T22:54:18.850Z,80.15
2023-02-08T22:59:15.752Z,92.70
2023-02-08T23:04:13.548Z,88.03
2023-02-08T23:09:12.005Z,86.25
2023-02-08T23:14:08.901Z,79.10
2023-02-08T23:19:06.068Z,81.68
2023-02-08T23:24:04.180Z,59.92
2023-02-08T23:29:01.469Z,63.58
2023-02-08T23:33:59.184Z,92.18
2023-02-08T23:38:55.986Z,103.18
2023-02-08T23:43:53.594Z,90.85
2023-02-08T23:48:51.221Z,74.80
2023-02-08T23:53:48.701Z,76.50
2023-02-08T23:58:48.545Z,81.43
